sensor_id;sensor_type;location;lat;lon;timestamp;temperature;humidity
15341;DHT22;7770;52.158;5.372;2023-10-09T00:02:25;14.30;99.90
15341;DHT22;7770;52.158;5.372;2023-10-09T00:05:11;14.30;99.90
15341;DHT22;7770;52.158;5.372;2023-10-09T00:08:08;14.30;99.90
15341;DHT22;7770;52.158;5.372;2023-10-09T00:10:54;14.20;99.90
15341;DHT22;7770;52.158;5.372;2023-10-09T00:13:41;14.20;99.90
15341;DHT22;7770;52.158;5.372;2023-10-09T00:16:34;14.10;99.90
15341;DHT22;7770;52.158;5.372;2023-10-09T00:19:20;14.20;99.90
15341;DHT22;7770;52.158;5.372;2023-10-09T00:22:12;14.20;99.90
15341;DHT22;7770;52.158;5.372;2023-10-09T00:25:11;14.30;99.90
15341;DHT22;7770;52.158;5.372;2023-10-09T00:27:57;14.30;99.90
15341;DHT22;7770;52.158;5.372;2023-10-09T00:30:45;14.20;99.90
15341;DHT22;7770;52.158;5.372;2023-10-09T00:33:31;14.20;99.90
15341;DHT22;7770;52.158;5.372;2023-10-09T00:36:18;14.20;99.90
15341;DHT22;7770;52.158;5.372;2023-10-09T00:39:13;14.20;99.90
15341;DHT22;7770;52.158;5.372;2023-10-09T00:42:07;14.20;99.90
15341;DHT22;7770;52.158;5.372;2023-10-09T00:44:54;14.20;99.90
15341;DHT22;7770;52.158;5.372;2023-10-09T00:47:41;14.20;99.90
15341;DHT22;7770;52.158;5.372;2023-10-09T00:50:29;14.30;99.90
15341;DHT22;7770;52.158;5.372;2023-10-09T00:53:22;14.30;99.90
15341;DHT22;7770;52.158;5.372;2023-10-09T00:56:23;14.30;99.90
15341;DHT22;7770;52.158;5.372;2023-10-09T00:59:15;14.40;99.90
15341;DHT22;7770;52.158;5.372;2023-10-09T01:02:02;14.30;99.90
15341;DHT22;7770;52.158;5.372;2023-10-09T01:04:50;14.40;99.90
15341;DHT22;7770;52.158;5.372;2023-10-09T01:07:37;14.40;99.90
15341;DHT22;7770;52.158;5.372;2023-10-09T01:10:25;14.40;99.90
15341;DHT22;7770;52.158;5.372;2023-10-09T01:13:19;14.50;99.90
15341;DHT22;7770;52.158;5.372;2023-10-09T01:16:06;14.50;99.90
15341;DHT22;7770;52.158;5.372;2023-10-09T01:18:58;14.50;99.90
15341;DHT22;7770;52.158;5.372;2023-10-09T01:21:46;14.60;99.90
15341;DHT22;7770;52.158;5.372;2023-10-09T01:24:32;14.70;99.90
15341;DHT22;7770;52.158;5.372;2023-10-09T01:27:21;14.80;99.90
15341;DHT22;7770;52.158;5.372;2023-10-09T01:30:11;14.80;99.90
15341;DHT22;7770;52.158;5.372;2023-10-09T01:32:59;14.90;99.90
15341;DHT22;7770;52.158;5.372;2023-10-09T01:35:57;14.90;99.90
15341;DHT22;7770;52.158;5.372;2023-10-09T01:38:44;15.00;99.90
15341;DHT22;7770;52.158;5.372;2023-10-09T01:41:33;15.00;99.90
15341;DHT22;7770;52.158;5.372;2023-10-09T01:44:19;15.10;99.90
15341;DHT22;7770;52.158;5.372;2023-10-09T01:47:05;15.10;99.90
15341;DHT22;7770;52.158;5.372;2023-10-09T01:49:54;15.10;99.90
15341;DHT22;7770;52.158;5.372;2023-10-09T01:52:43;15.20;99.90
15341;DHT22;7770;52.158;5.372;2023-10-09T01:55:30;15.10;99.90
15341;DHT22;7770;52.158;5.372;2023-10-09T01:58:19;15.10;99.90
15341;DHT22;7770;52.158;5.372;2023-10-09T02:01:07;15.20;99.90
15341;DHT22;7770;52.158;5.372;2023-10-09T02:03:55;15.20;99.90
15341;DHT22;7770;52.158;5.372;2023-10-09T02:06:49;15.10;99.90
15341;DHT22;7770;52.158;5.372;2023-10-09T02:09:38;15.10;99.90
15341;DHT22;7770;52.158;5.372;2023-10-09T02:12:31;15.00;99.90
15341;DHT22;7770;52.158;5.372;2023-10-09T02:15:19;15.10;99.90
15341;DHT22;7770;52.158;5.372;2023-10-09T02:18:25;15.10;99.90
15341;DHT22;7770;52.158;5.372;2023-10-09T02:21:25;15.10;99.90
15341;DHT22;7770;52.158;5.372;2023-10-09T02:24:26;15.00;99.90
15341;DHT22;7770;52.158;5.372;2023-10-09T02:27:30;15.00;99.90
15341;DHT22;7770;52.158;5.372;2023-10-09T02:30:33;15.00;99.90
15341;DHT22;7770;52.158;5.372;2023-10-09T02:33:20;15.00;99.90
15341;DHT22;7770;52.158;5.372;2023-10-09T02:36:13;15.10;99.90
15341;DHT22;7770;52.158;5.372;2023-10-09T02:38:59;15.10;99.90
15341;DHT22;7770;52.158;5.372;2023-10-09T02:41:45;15.10;99.90
15341;DHT22;7770;52.158;5.372;2023-10-09T02:44:35;15.10;99.90
15341;DHT22;7770;52.158;5.372;2023-10-09T02:47:26;15.10;99.90
15341;DHT22;7770;52.158;5.372;2023-10-09T02:50:23;15.10;99.90
15341;DHT22;7770;52.158;5.372;2023-10-09T02:53:13;15.10;99.90
15341;DHT22;7770;52.158;5.372;2023-10-09T02:56:05;15.10;99.90
15341;DHT22;7770;52.158;5.372;2023-10-09T02:58:58;15.20;99.90
15341;DHT22;7770;52.158;5.372;2023-10-09T03:01:51;15.30;99.90
15341;DHT22;7770;52.158;5.372;2023-10-09T03:04:38;15.30;99.90
15341;DHT22;7770;52.158;5.372;2023-10-09T03:07:24;15.30;99.90
15341;DHT22;7770;52.158;5.372;2023-10-09T03:10:10;15.30;99.90
15341;DHT22;7770;52.158;5.372;2023-10-09T03:12:57;15.40;99.90
15341;DHT22;7770;52.158;5.372;2023-10-09T03:15:47;15.40;99.90
15341;DHT22;7770;52.158;5.372;2023-10-09T03:18:34;15.50;99.90
15341;DHT22;7770;52.158;5.372;2023-10-09T03:21:20;15.50;99.90
15341;DHT22;7770;52.158;5.372;2023-10-09T03:24:07;15.50;99.90
15341;DHT22;7770;52.158;5.372;2023-10-09T03:26:53;15.50;99.90
15341;DHT22;7770;52.158;5.372;2023-10-09T03:29:41;15.60;99.90
15341;DHT22;7770;52.158;5.372;2023-10-09T03:32:27;15.50;99.90
15341;DHT22;7770;52.158;5.372;2023-10-09T03:35:13;15.50;99.90
15341;DHT22;7770;52.158;5.372;2023-10-09T03:38:03;15.60;99.90
15341;DHT22;7770;52.158;5.372;2023-10-09T03:40:57;15.60;99.90
15341;DHT22;7770;52.158;5.372;2023-10-09T03:43:43;15.60;99.90
15341;DHT22;7770;52.158;5.372;2023-10-09T03:46:31;15.50;99.90
15341;DHT22;7770;52.158;5.372;2023-10-09T03:49:22;15.50;99.90
15341;DHT22;7770;52.158;5.372;2023-10-09T03:52:11;15.50;99.90
15341;DHT22;7770;52.158;5.372;2023-10-09T03:55:03;15.50;99.90
15341;DHT22;7770;52.158;5.372;2023-10-09T03:57:55;15.50;99.90
15341;DHT22;7770;52.158;5.372;2023-10-09T04:00:43;15.50;99.90
15341;DHT22;7770;52.158;5.372;2023-10-09T04:03:34;15.40;99.90
15341;DHT22;7770;52.158;5.372;2023-10-09T04:06:22;15.40;99.90
15341;DHT22;7770;52.158;5.372;2023-10-09T04:09:10;15.50;99.90
15341;DHT22;7770;52.158;5.372;2023-10-09T04:12:14;15.50;99.90
15341;DHT22;7770;52.158;5.372;2023-10-09T04:15:07;15.50;99.90
15341;DHT22;7770;52.158;5.372;2023-10-09T04:18:00;15.50;99.90
15341;DHT22;7770;52.158;5.372;2023-10-09T04:20:47;15.50;99.90
15341;DHT22;7770;52.158;5.372;2023-10-09T04:23:53;15.50;99.90
15341;DHT22;7770;52.158;5.372;2023-10-09T04:26:46;15.50;99.90
15341;DHT22;7770;52.158;5.372;2023-10-09T04:29:32;15.50;99.90
15341;DHT22;7770;52.158;5.372;2023-10-09T04:32:24;15.50;99.90
15341;DHT22;7770;52.158;5.372;2023-10-09T04:35:11;15.60;99.90
15341;DHT22;7770;52.158;5.372;2023-10-09T04:38:10;15.70;99.90
15341;DHT22;7770;52.158;5.372;2023-10-09T04:40:56;15.80;99.90
15341;DHT22;7770;52.158;5.372;2023-10-09T04:43:45;15.80;99.90
15341;DHT22;7770;52.158;5.372;2023-10-09T04:46:32;15.80;99.90
15341;DHT22;7770;52.158;5.372;2023-10-09T04:49:29;15.80;99.90
15341;DHT22;7770;52.158;5.372;2023-10-09T04:52:16;15.90;99.90
15341;DHT22;7770;52.158;5.372;2023-10-09T04:55:11;15.90;99.90
15341;DHT22;7770;52.158;5.372;2023-10-09T04:57:57;16.00;99.90
15341;DHT22;7770;52.158;5.372;2023-10-09T05:00:59;16.00;99.90
15341;DHT22;7770;52.158;5.372;2023-10-09T05:03:45;16.10;99.90
15341;DHT22;7770;52.158;5.372;2023-10-09T05:06:31;16.10;99.90
15341;DHT22;7770;52.158;5.372;2023-10-09T05:09:40;16.10;99.90
15341;DHT22;7770;52.158;5.372;2023-10-09T05:12:41;16.20;99.90
15341;DHT22;7770;52.158;5.372;2023-10-09T05:15:32;16.30;99.90
15341;DHT22;7770;52.158;5.372;2023-10-09T05:18:20;16.30;99.90
15341;DHT22;7770;52.158;5.372;2023-10-09T05:21:13;16.30;99.90
15341;DHT22;7770;52.158;5.372;2023-10-09T05:23:59;16.30;99.90
15341;DHT22;7770;52.158;5.372;2023-10-09T05:26:57;16.40;99.90
15341;DHT22;7770;52.158;5.372;2023-10-09T05:30:03;16.40;99.90
15341;DHT22;7770;52.158;5.372;2023-10-09T05:33:10;16.40;99.90
15341;DHT22;7770;52.158;5.372;2023-10-09T05:36:14;16.40;99.90
15341;DHT22;7770;52.158;5.372;2023-10-09T05:39:20;16.40;99.90
15341;DHT22;7770;52.158;5.372;2023-10-09T05:42:36;16.40;99.90
15341;DHT22;7770;52.158;5.372;2023-10-09T05:45:27;16.40;99.90
15341;DHT22;7770;52.158;5.372;2023-10-09T05:48:36;16.40;99.90
15341;DHT22;7770;52.158;5.372;2023-10-09T05:51:25;16.40;99.90
15341;DHT22;7770;52.158;5.372;2023-10-09T05:54:29;16.40;99.90
15341;DHT22;7770;52.158;5.372;2023-10-09T05:57:35;16.40;99.90
15341;DHT22;7770;52.158;5.372;2023-10-09T06:00:39;16.40;99.90
15341;DHT22;7770;52.158;5.372;2023-10-09T06:03:44;16.30;99.90
15341;DHT22;7770;52.158;5.372;2023-10-09T06:06:39;16.40;99.90
15341;DHT22;7770;52.158;5.372;2023-10-09T06:09:30;16.40;99.90
15341;DHT22;7770;52.158;5.372;2023-10-09T06:12:35;16.40;99.90
15341;DHT22;7770;52.158;5.372;2023-10-09T06:15:36;16.40;99.90
15341;DHT22;7770;52.158;5.372;2023-10-09T06:18:55;16.50;99.90
15341;DHT22;7770;52.158;5.372;2023-10-09T06:21:58;16.50;99.90
15341;DHT22;7770;52.158;5.372;2023-10-09T06:25:03;16.50;99.90
15341;DHT22;7770;52.158;5.372;2023-10-09T06:27:57;16.50;99.90
15341;DHT22;7770;52.158;5.372;2023-10-09T06:30:43;16.40;99.90
15341;DHT22;7770;52.158;5.372;2023-10-09T06:33:32;16.50;99.90
15341;DHT22;7770;52.158;5.372;2023-10-09T06:36:38;16.40;99.90
15341;DHT22;7770;52.158;5.372;2023-10-09T06:39:38;16.40;99.90
15341;DHT22;7770;52.158;5.372;2023-10-09T06:42:36;16.40;99.90
15341;DHT22;7770;52.158;5.372;2023-10-09T06:45:25;16.40;99.90
15341;DHT22;7770;52.158;5.372;2023-10-09T06:48:29;16.40;99.90
15341;DHT22;7770;52.158;5.372;2023-10-09T06:51:21;16.50;99.90
15341;DHT22;7770;52.158;5.372;2023-10-09T06:54:10;16.50;99.90
15341;DHT22;7770;52.158;5.372;2023-10-09T06:57:00;16.60;99.90
15341;DHT22;7770;52.158;5.372;2023-10-09T07:00:16;16.60;99.90
15341;DHT22;7770;52.158;5.372;2023-10-09T07:03:21;16.60;99.90
15341;DHT22;7770;52.158;5.372;2023-10-09T07:06:15;16.70;99.90
15341;DHT22;7770;52.158;5.372;2023-10-09T07:09:10;16.70;99.90
15341;DHT22;7770;52.158;5.372;2023-10-09T07:11:57;16.80;99.90
15341;DHT22;7770;52.158;5.372;2023-10-09T07:14:44;16.90;99.90
15341;DHT22;7770;52.158;5.372;2023-10-09T07:17:30;16.90;99.90
15341;DHT22;7770;52.158;5.372;2023-10-09T07:20:19;16.90;99.90
15341;DHT22;7770;52.158;5.372;2023-10-09T07:23:23;16.90;99.90
15341;DHT22;7770;52.158;5.372;2023-10-09T07:26:14;16.90;99.90
15341;DHT22;7770;52.158;5.372;2023-10-09T07:29:11;16.90;99.90
15341;DHT22;7770;52.158;5.372;2023-10-09T07:32:07;17.00;99.90
15341;DHT22;7770;52.158;5.372;2023-10-09T07:34:58;17.00;99.90
15341;DHT22;7770;52.158;5.372;2023-10-09T07:37:44;17.10;99.90
15341;DHT22;7770;52.158;5.372;2023-10-09T07:40:40;17.10;99.90
15341;DHT22;7770;52.158;5.372;2023-10-09T07:43:41;17.20;99.90
15341;DHT22;7770;52.158;5.372;2023-10-09T07:46:30;17.30;99.90
15341;DHT22;7770;52.158;5.372;2023-10-09T07:49:18;17.40;99.90
15341;DHT22;7770;52.158;5.372;2023-10-09T07:52:15;17.50;99.90
15341;DHT22;7770;52.158;5.372;2023-10-09T07:55:01;17.60;99.90
15341;DHT22;7770;52.158;5.372;2023-10-09T07:57:48;17.70;99.90
15341;DHT22;7770;52.158;5.372;2023-10-09T08:00:38;17.80;99.90
15341;DHT22;7770;52.158;5.372;2023-10-09T08:03:43;17.90;99.90
15341;DHT22;7770;52.158;5.372;2023-10-09T08:06:31;18.10;99.90
15341;DHT22;7770;52.158;5.372;2023-10-09T08:09:23;18.20;99.90
15341;DHT22;7770;52.158;5.372;2023-10-09T08:12:31;18.30;99.90
15341;DHT22;7770;52.158;5.372;2023-10-09T08:15:35;18.50;99.90
15341;DHT22;7770;52.158;5.372;2023-10-09T08:18:36;18.60;99.90
15341;DHT22;7770;52.158;5.372;2023-10-09T08:21:30;18.60;99.90
15341;DHT22;7770;52.158;5.372;2023-10-09T08:24:30;18.50;99.90
15341;DHT22;7770;52.158;5.372;2023-10-09T08:27:35;18.50;99.90
15341;DHT22;7770;52.158;5.372;2023-10-09T08:30:21;18.60;99.90
15341;DHT22;7770;52.158;5.372;2023-10-09T08:33:10;18.60;99.90
15341;DHT22;7770;52.158;5.372;2023-10-09T08:36:16;18.70;99.90
15341;DHT22;7770;52.158;5.372;2023-10-09T08:39:08;18.80;99.90
15341;DHT22;7770;52.158;5.372;2023-10-09T08:42:10;18.80;99.90
15341;DHT22;7770;52.158;5.372;2023-10-09T08:44:57;19.00;99.90
15341;DHT22;7770;52.158;5.372;2023-10-09T08:47:46;19.10;99.90
15341;DHT22;7770;52.158;5.372;2023-10-09T08:50:35;19.20;99.90
15341;DHT22;7770;52.158;5.372;2023-10-09T08:53:23;19.40;99.90
15341;DHT22;7770;52.158;5.372;2023-10-09T08:56:10;19.50;99.90
15341;DHT22;7770;52.158;5.372;2023-10-09T08:58:58;19.60;99.90
15341;DHT22;7770;52.158;5.372;2023-10-09T09:01:48;19.60;99.90
15341;DHT22;7770;52.158;5.372;2023-10-09T09:04:40;19.70;99.90
15341;DHT22;7770;52.158;5.372;2023-10-09T09:07:28;19.70;99.90
15341;DHT22;7770;52.158;5.372;2023-10-09T09:10:17;19.80;99.90
15341;DHT22;7770;52.158;5.372;2023-10-09T09:13:03;20.00;99.90
15341;DHT22;7770;52.158;5.372;2023-10-09T09:15:49;20.00;99.90
15341;DHT22;7770;52.158;5.372;2023-10-09T09:18:53;20.20;99.90
15341;DHT22;7770;52.158;5.372;2023-10-09T09:22:01;20.30;99.90
15341;DHT22;7770;52.158;5.372;2023-10-09T09:24:58;20.40;99.90
15341;DHT22;7770;52.158;5.372;2023-10-09T09:27:48;20.60;99.90
15341;DHT22;7770;52.158;5.372;2023-10-09T09:30:41;20.80;99.90
15341;DHT22;7770;52.158;5.372;2023-10-09T09:33:27;21.00;99.90
15341;DHT22;7770;52.158;5.372;2023-10-09T09:36:25;21.10;99.90
15341;DHT22;7770;52.158;5.372;2023-10-09T09:39:14;21.10;99.90
15341;DHT22;7770;52.158;5.372;2023-10-09T09:42:05;21.00;99.90
15341;DHT22;7770;52.158;5.372;2023-10-09T09:45:01;21.10;99.90
15341;DHT22;7770;52.158;5.372;2023-10-09T09:47:49;21.20;99.90
15341;DHT22;7770;52.158;5.372;2023-10-09T09:50:38;21.20;99.90
15341;DHT22;7770;52.158;5.372;2023-10-09T09:53:30;21.30;99.90
15341;DHT22;7770;52.158;5.372;2023-10-09T09:56:20;21.50;99.90
15341;DHT22;7770;52.158;5.372;2023-10-09T09:59:10;21.70;99.90
15341;DHT22;7770;52.158;5.372;2023-10-09T10:02:10;21.70;99.90
15341;DHT22;7770;52.158;5.372;2023-10-09T10:05:08;21.60;99.90
15341;DHT22;7770;52.158;5.372;2023-10-09T10:08:01;21.50;99.90
15341;DHT22;7770;52.158;5.372;2023-10-09T10:10:50;21.50;99.90
15341;DHT22;7770;52.158;5.372;2023-10-09T10:16:28;21.60;99.90
15341;DHT22;7770;52.158;5.372;2023-10-09T10:19:20;21.60;99.90
15341;DHT22;7770;52.158;5.372;2023-10-09T10:22:27;21.50;99.90
15341;DHT22;7770;52.158;5.372;2023-10-09T10:28:22;21.50;99.90
15341;DHT22;7770;52.158;5.372;2023-10-09T10:37:41;21.50;99.90
15341;DHT22;7770;52.158;5.372;2023-10-09T10:40:36;21.50;99.90
15341;DHT22;7770;52.158;5.372;2023-10-09T10:43:26;21.70;99.90
15341;DHT22;7770;52.158;5.372;2023-10-09T10:46:22;21.80;99.90
15341;DHT22;7770;52.158;5.372;2023-10-09T10:49:23;22.00;99.90
15341;DHT22;7770;52.158;5.372;2023-10-09T10:52:25;22.10;99.90
15341;DHT22;7770;52.158;5.372;2023-10-09T10:55:27;22.20;99.90
15341;DHT22;7770;52.158;5.372;2023-10-09T10:58:17;22.10;99.90
15341;DHT22;7770;52.158;5.372;2023-10-09T11:01:09;22.20;99.90
15341;DHT22;7770;52.158;5.372;2023-10-09T11:03:57;22.30;99.90
15341;DHT22;7770;52.158;5.372;2023-10-09T11:06:51;22.50;99.90
15341;DHT22;7770;52.158;5.372;2023-10-09T11:09:46;22.60;99.90
15341;DHT22;7770;52.158;5.372;2023-10-09T11:12:51;22.80;99.90
15341;DHT22;7770;52.158;5.372;2023-10-09T11:15:40;22.70;99.90
15341;DHT22;7770;52.158;5.372;2023-10-09T11:18:39;22.80;99.90
15341;DHT22;7770;52.158;5.372;2023-10-09T11:21:31;22.90;99.90
15341;DHT22;7770;52.158;5.372;2023-10-09T11:24:18;23.00;99.90
15341;DHT22;7770;52.158;5.372;2023-10-09T11:27:10;22.90;99.90
15341;DHT22;7770;52.158;5.372;2023-10-09T11:30:04;23.00;99.90
15341;DHT22;7770;52.158;5.372;2023-10-09T11:33:07;23.00;99.90
15341;DHT22;7770;52.158;5.372;2023-10-09T11:35:59;23.00;99.90
15341;DHT22;7770;52.158;5.372;2023-10-09T11:38:46;23.00;99.90
15341;DHT22;7770;52.158;5.372;2023-10-09T11:41:39;23.00;99.90
15341;DHT22;7770;52.158;5.372;2023-10-09T11:44:41;23.00;99.90
15341;DHT22;7770;52.158;5.372;2023-10-09T11:47:36;23.10;99.90
15341;DHT22;7770;52.158;5.372;2023-10-09T11:53:41;23.30;99.90
15341;DHT22;7770;52.158;5.372;2023-10-09T11:56:40;23.40;99.90
15341;DHT22;7770;52.158;5.372;2023-10-09T11:59:26;23.10;99.90
15341;DHT22;7770;52.158;5.372;2023-10-09T12:02:23;22.90;99.90
15341;DHT22;7770;52.158;5.372;2023-10-09T12:05:10;22.60;99.90
15341;DHT22;7770;52.158;5.372;2023-10-09T12:08:03;22.50;99.90
15341;DHT22;7770;52.158;5.372;2023-10-09T12:10:55;22.50;99.90
15341;DHT22;7770;52.158;5.372;2023-10-09T12:13:41;22.60;99.90
15341;DHT22;7770;52.158;5.372;2023-10-09T12:16:31;22.70;99.90
15341;DHT22;7770;52.158;5.372;2023-10-09T12:19:18;22.80;99.90
15341;DHT22;7770;52.158;5.372;2023-10-09T12:22:07;22.70;99.90
15341;DHT22;7770;52.158;5.372;2023-10-09T12:25:01;22.70;99.90
15341;DHT22;7770;52.158;5.372;2023-10-09T12:27:55;22.60;99.90
15341;DHT22;7770;52.158;5.372;2023-10-09T12:30:42;22.40;99.90
15341;DHT22;7770;52.158;5.372;2023-10-09T12:33:32;22.30;99.90
15341;DHT22;7770;52.158;5.372;2023-10-09T12:36:18;22.20;99.90
15341;DHT22;7770;52.158;5.372;2023-10-09T12:39:07;22.00;99.90
15341;DHT22;7770;52.158;5.372;2023-10-09T12:41:56;21.90;99.90
15341;DHT22;7770;52.158;5.372;2023-10-09T12:44:44;21.90;99.90
15341;DHT22;7770;52.158;5.372;2023-10-09T12:47:31;21.90;99.90
15341;DHT22;7770;52.158;5.372;2023-10-09T12:50:18;21.70;99.90
15341;DHT22;7770;52.158;5.372;2023-10-09T12:53:13;21.70;99.90
15341;DHT22;7770;52.158;5.372;2023-10-09T12:56:03;21.60;99.90
15341;DHT22;7770;52.158;5.372;2023-10-09T12:58:50;21.50;99.90
15341;DHT22;7770;52.158;5.372;2023-10-09T13:01:38;21.50;99.90
15341;DHT22;7770;52.158;5.372;2023-10-09T13:04:30;21.30;99.90
15341;DHT22;7770;52.158;5.372;2023-10-09T13:07:17;21.20;99.90
15341;DHT22;7770;52.158;5.372;2023-10-09T13:10:07;21.10;99.90
15341;DHT22;7770;52.158;5.372;2023-10-09T13:12:54;21.10;99.90
15341;DHT22;7770;52.158;5.372;2023-10-09T13:15:43;20.90;99.90
15341;DHT22;7770;52.158;5.372;2023-10-09T13:18:28;20.90;99.90
15341;DHT22;7770;52.158;5.372;2023-10-09T13:21:16;21.00;99.90
15341;DHT22;7770;52.158;5.372;2023-10-09T13:24:06;21.00;99.90
15341;DHT22;7770;52.158;5.372;2023-10-09T13:26:58;21.00;99.90
15341;DHT22;7770;52.158;5.372;2023-10-09T13:29:44;20.90;99.90
15341;DHT22;7770;52.158;5.372;2023-10-09T13:32:30;20.90;99.90
15341;DHT22;7770;52.158;5.372;2023-10-09T13:35:21;20.90;99.90
15341;DHT22;7770;52.158;5.372;2023-10-09T13:38:23;20.80;99.90
15341;DHT22;7770;52.158;5.372;2023-10-09T13:41:10;20.80;99.90
15341;DHT22;7770;52.158;5.372;2023-10-09T13:43:58;20.70;99.90
15341;DHT22;7770;52.158;5.372;2023-10-09T13:46:44;20.60;99.90
15341;DHT22;7770;52.158;5.372;2023-10-09T13:49:30;20.60;99.90
15341;DHT22;7770;52.158;5.372;2023-10-09T13:52:16;20.60;99.90
15341;DHT22;7770;52.158;5.372;2023-10-09T13:55:08;20.70;99.90
15341;DHT22;7770;52.158;5.372;2023-10-09T13:58:03;20.80;99.90
15341;DHT22;7770;52.158;5.372;2023-10-09T14:00:51;21.00;99.90
15341;DHT22;7770;52.158;5.372;2023-10-09T14:03:39;21.10;99.90
15341;DHT22;7770;52.158;5.372;2023-10-09T14:06:26;21.20;99.90
15341;DHT22;7770;52.158;5.372;2023-10-09T14:09:18;21.10;99.90
15341;DHT22;7770;52.158;5.372;2023-10-09T14:12:13;21.00;99.90
15341;DHT22;7770;52.158;5.372;2023-10-09T14:15:05;20.90;99.90
15341;DHT22;7770;52.158;5.372;2023-10-09T14:17:56;20.90;99.90
15341;DHT22;7770;52.158;5.372;2023-10-09T14:20:42;20.80;99.90
15341;DHT22;7770;52.158;5.372;2023-10-09T14:23:28;20.90;99.90
15341;DHT22;7770;52.158;5.372;2023-10-09T14:26:17;20.80;99.90
15341;DHT22;7770;52.158;5.372;2023-10-09T14:29:04;20.80;99.90
15341;DHT22;7770;52.158;5.372;2023-10-09T14:31:52;20.90;99.90
15341;DHT22;7770;52.158;5.372;2023-10-09T14:34:45;20.80;99.90
15341;DHT22;7770;52.158;5.372;2023-10-09T14:37:40;20.70;99.90
15341;DHT22;7770;52.158;5.372;2023-10-09T14:40:27;20.70;99.90
15341;DHT22;7770;52.158;5.372;2023-10-09T14:43:17;20.70;99.90
15341;DHT22;7770;52.158;5.372;2023-10-09T14:46:06;20.70;99.90
15341;DHT22;7770;52.158;5.372;2023-10-09T14:48:56;20.70;99.90
15341;DHT22;7770;52.158;5.372;2023-10-09T14:51:43;20.80;99.90
15341;DHT22;7770;52.158;5.372;2023-10-09T14:54:29;20.80;99.90
15341;DHT22;7770;52.158;5.372;2023-10-09T14:57:15;20.80;99.90
15341;DHT22;7770;52.158;5.372;2023-10-09T15:00:02;20.80;99.90
15341;DHT22;7770;52.158;5.372;2023-10-09T15:02:59;20.80;99.90
15341;DHT22;7770;52.158;5.372;2023-10-09T15:05:46;20.80;99.90
15341;DHT22;7770;52.158;5.372;2023-10-09T15:08:32;20.70;99.90
15341;DHT22;7770;52.158;5.372;2023-10-09T15:11:24;20.70;99.90
15341;DHT22;7770;52.158;5.372;2023-10-09T15:14:11;20.50;99.90
15341;DHT22;7770;52.158;5.372;2023-10-09T15:16:57;20.30;99.90
15341;DHT22;7770;52.158;5.372;2023-10-09T15:19:43;20.10;99.90
15341;DHT22;7770;52.158;5.372;2023-10-09T15:22:31;19.90;99.90
15341;DHT22;7770;52.158;5.372;2023-10-09T15:25:22;19.70;99.90
15341;DHT22;7770;52.158;5.372;2023-10-09T15:28:08;19.70;99.90
15341;DHT22;7770;52.158;5.372;2023-10-09T15:30:55;19.60;99.90
15341;DHT22;7770;52.158;5.372;2023-10-09T15:33:41;19.60;99.90
15341;DHT22;7770;52.158;5.372;2023-10-09T15:36:28;19.60;99.90
15341;DHT22;7770;52.158;5.372;2023-10-09T15:39:18;19.70;99.90
15341;DHT22;7770;52.158;5.372;2023-10-09T15:42:05;19.80;99.90
15341;DHT22;7770;52.158;5.372;2023-10-09T15:44:52;19.80;99.90
15341;DHT22;7770;52.158;5.372;2023-10-09T15:47:40;19.90;99.90
15341;DHT22;7770;52.158;5.372;2023-10-09T15:50:26;20.00;99.90
15341;DHT22;7770;52.158;5.372;2023-10-09T15:53:12;19.90;99.90
15341;DHT22;7770;52.158;5.372;2023-10-09T15:56:01;19.80;99.90
15341;DHT22;7770;52.158;5.372;2023-10-09T15:58:47;19.80;99.90
15341;DHT22;7770;52.158;5.372;2023-10-09T16:01:33;19.70;99.90
15341;DHT22;7770;52.158;5.372;2023-10-09T16:04:21;19.70;99.90
15341;DHT22;7770;52.158;5.372;2023-10-09T16:07:07;19.70;99.90
15341;DHT22;7770;52.158;5.372;2023-10-09T16:09:55;19.80;99.90
15341;DHT22;7770;52.158;5.372;2023-10-09T16:12:41;19.70;99.90
15341;DHT22;7770;52.158;5.372;2023-10-09T16:15:28;19.70;99.90
15341;DHT22;7770;52.158;5.372;2023-10-09T16:18:14;19.60;99.90
15341;DHT22;7770;52.158;5.372;2023-10-09T16:21:00;19.60;99.90
15341;DHT22;7770;52.158;5.372;2023-10-09T16:23:53;19.50;99.90
15341;DHT22;7770;52.158;5.372;2023-10-09T16:26:39;19.40;99.90
15341;DHT22;7770;52.158;5.372;2023-10-09T16:29:27;19.40;99.90
15341;DHT22;7770;52.158;5.372;2023-10-09T16:32:13;19.30;99.90
15341;DHT22;7770;52.158;5.372;2023-10-09T16:34:59;19.30;99.90
15341;DHT22;7770;52.158;5.372;2023-10-09T16:37:45;19.20;99.90
15341;DHT22;7770;52.158;5.372;2023-10-09T16:40:35;19.10;99.90
15341;DHT22;7770;52.158;5.372;2023-10-09T16:43:22;19.10;99.90
15341;DHT22;7770;52.158;5.372;2023-10-09T16:46:11;19.00;99.90
15341;DHT22;7770;52.158;5.372;2023-10-09T16:48:59;18.90;99.90
15341;DHT22;7770;52.158;5.372;2023-10-09T16:51:49;18.80;99.90
15341;DHT22;7770;52.158;5.372;2023-10-09T16:54:37;18.70;99.90
15341;DHT22;7770;52.158;5.372;2023-10-09T16:57:23;18.60;99.90
15341;DHT22;7770;52.158;5.372;2023-10-09T17:00:14;18.50;99.90
15341;DHT22;7770;52.158;5.372;2023-10-09T17:03:20;18.50;99.90
15341;DHT22;7770;52.158;5.372;2023-10-09T17:06:10;18.40;99.90
15341;DHT22;7770;52.158;5.372;2023-10-09T17:08:57;18.40;99.90
15341;DHT22;7770;52.158;5.372;2023-10-09T17:11:43;18.40;99.90
15341;DHT22;7770;52.158;5.372;2023-10-09T17:14:29;18.40;99.90
15341;DHT22;7770;52.158;5.372;2023-10-09T17:17:15;18.40;99.90
15341;DHT22;7770;52.158;5.372;2023-10-09T17:20:03;18.40;99.90
15341;DHT22;7770;52.158;5.372;2023-10-09T17:22:56;18.30;99.90
15341;DHT22;7770;52.158;5.372;2023-10-09T17:25:45;18.30;99.90
15341;DHT22;7770;52.158;5.372;2023-10-09T17:28:31;18.30;99.90
15341;DHT22;7770;52.158;5.372;2023-10-09T17:31:18;18.40;99.90
15341;DHT22;7770;52.158;5.372;2023-10-09T17:34:08;18.30;99.90
15341;DHT22;7770;52.158;5.372;2023-10-09T17:36:54;18.30;99.90
15341;DHT22;7770;52.158;5.372;2023-10-09T17:39:43;18.30;99.90
15341;DHT22;7770;52.158;5.372;2023-10-09T17:42:29;18.30;99.90
15341;DHT22;7770;52.158;5.372;2023-10-09T17:45:15;18.30;99.90
15341;DHT22;7770;52.158;5.372;2023-10-09T17:48:07;18.30;99.90
15341;DHT22;7770;52.158;5.372;2023-10-09T17:50:56;18.20;99.90
15341;DHT22;7770;52.158;5.372;2023-10-09T17:53:42;18.20;99.90
15341;DHT22;7770;52.158;5.372;2023-10-09T17:56:28;18.20;99.90
15341;DHT22;7770;52.158;5.372;2023-10-09T17:59:15;18.30;99.90
15341;DHT22;7770;52.158;5.372;2023-10-09T18:02:01;18.20;99.90
15341;DHT22;7770;52.158;5.372;2023-10-09T18:04:48;18.20;99.90
15341;DHT22;7770;52.158;5.372;2023-10-09T18:07:34;18.20;99.90
15341;DHT22;7770;52.158;5.372;2023-10-09T18:10:20;18.20;99.90
15341;DHT22;7770;52.158;5.372;2023-10-09T18:13:07;18.20;99.90
15341;DHT22;7770;52.158;5.372;2023-10-09T18:16:06;18.20;99.90
15341;DHT22;7770;52.158;5.372;2023-10-09T18:18:53;18.20;99.90
15341;DHT22;7770;52.158;5.372;2023-10-09T18:21:39;18.20;99.90
15341;DHT22;7770;52.158;5.372;2023-10-09T18:24:28;18.20;99.90
15341;DHT22;7770;52.158;5.372;2023-10-09T18:27:14;18.20;99.90
15341;DHT22;7770;52.158;5.372;2023-10-09T18:30:00;18.20;99.90
15341;DHT22;7770;52.158;5.372;2023-10-09T18:32:46;18.10;99.90
15341;DHT22;7770;52.158;5.372;2023-10-09T18:35:33;18.10;99.90